sensor_id;sensor_type;location;lat;lon;timestamp;temperature;humidity
7000;DHT22;3540;53.242;10.408;2023-04-25T00:01:21;7.70;1.00
7000;DHT22;3540;53.242;10.408;2023-04-25T00:03:50;7.70;1.00
7000;DHT22;3540;53.242;10.408;2023-04-25T00:06:16;7.80;1.00
7000;DHT22;3540;53.242;10.408;2023-04-25T00:08:43;7.70;1.00
7000;DHT22;3540;53.242;10.408;2023-04-25T00:11:09;7.70;1.00
7000;DHT22;3540;53.242;10.408;2023-04-25T00:13:35;7.70;1.00
7000;DHT22;3540;53.242;10.408;2023-04-25T00:16:00;7.70;1.00
7000;DHT22;3540;53.242;10.408;2023-04-25T00:18:27;7.70;1.00
7000;DHT22;3540;53.242;10.408;2023-04-25T00:20:58;7.70;1.00
7000;DHT22;3540;53.242;10.408;2023-04-25T00:23:24;7.70;1.00
7000;DHT22;3540;53.242;10.408;2023-04-25T00:25:50;7.70;1.00
7000;DHT22;3540;53.242;10.408;2023-04-25T00:28:16;7.70;1.00
7000;DHT22;3540;53.242;10.408;2023-04-25T00:30:42;7.70;1.00
7000;DHT22;3540;53.242;10.408;2023-04-25T00:33:08;7.80;1.00
7000;DHT22;3540;53.242;10.408;2023-04-25T00:35:34;7.70;1.00
7000;DHT22;3540;53.242;10.408;2023-04-25T00:38:00;7.60;1.00
7000;DHT22;3540;53.242;10.408;2023-04-25T00:40:26;7.60;17.50
7000;DHT22;3540;53.242;10.408;2023-04-25T00:42:53;7.50;43.60
7000;DHT22;3540;53.242;10.408;2023-04-25T00:45:19;7.60;99.90
7000;DHT22;3540;53.242;10.408;2023-04-25T00:47:45;7.60;99.90
7000;DHT22;3540;53.242;10.408;2023-04-25T00:50:12;7.60;99.90
7000;DHT22;3540;53.242;10.408;2023-04-25T00:52:43;7.60;99.90
7000;DHT22;3540;53.242;10.408;2023-04-25T00:55:10;7.50;99.90
7000;DHT22;3540;53.242;10.408;2023-04-25T00:57:37;7.50;99.90
7000;DHT22;3540;53.242;10.408;2023-04-25T01:00:05;7.40;99.90
7000;DHT22;3540;53.242;10.408;2023-04-25T01:02:32;7.40;99.90
7000;DHT22;3540;53.242;10.408;2023-04-25T01:04:58;7.40;99.90
7000;DHT22;3540;53.242;10.408;2023-04-25T01:07:24;7.40;1.00
7000;DHT22;3540;53.242;10.408;2023-04-25T01:09:51;7.30;1.00
7000;DHT22;3540;53.242;10.408;2023-04-25T01:12:17;7.30;1.00
7000;DHT22;3540;53.242;10.408;2023-04-25T01:14:43;7.30;1.00
7000;DHT22;3540;53.242;10.408;2023-04-25T01:17:10;7.30;1.00
7000;DHT22;3540;53.242;10.408;2023-04-25T01:19:35;7.20;1.00
7000;DHT22;3540;53.242;10.408;2023-04-25T01:22:01;7.20;1.00
7000;DHT22;3540;53.242;10.408;2023-04-25T01:24:27;7.10;1.00
7000;DHT22;3540;53.242;10.408;2023-04-25T01:26:54;7.10;99.90
7000;DHT22;3540;53.242;10.408;2023-04-25T01:32:44;7.00;1.00
7000;DHT22;3540;53.242;10.408;2023-04-25T01:35:11;7.00;1.00
7000;DHT22;3540;53.242;10.408;2023-04-25T01:37:38;6.90;1.00
7000;DHT22;3540;53.242;10.408;2023-04-25T01:40:05;6.90;1.00
7000;DHT22;3540;53.242;10.408;2023-04-25T01:42:32;6.80;1.00
7000;DHT22;3540;53.242;10.408;2023-04-25T01:44:58;6.80;1.00
7000;DHT22;3540;53.242;10.408;2023-04-25T01:47:24;6.80;1.00
7000;DHT22;3540;53.242;10.408;2023-04-25T01:49:49;6.80;1.00
7000;DHT22;3540;53.242;10.408;2023-04-25T01:52:15;6.80;1.00
7000;DHT22;3540;53.242;10.408;2023-04-25T01:54:41;6.70;1.00
7000;DHT22;3540;53.242;10.408;2023-04-25T01:57:10;6.70;99.90
7000;DHT22;3540;53.242;10.408;2023-04-25T01:59:36;6.70;99.90
7000;DHT22;3540;53.242;10.408;2023-04-25T02:02:02;6.70;99.90
7000;DHT22;3540;53.242;10.408;2023-04-25T02:04:31;6.70;99.90
7000;DHT22;3540;53.242;10.408;2023-04-25T02:06:57;6.60;99.90
7000;DHT22;3540;53.242;10.408;2023-04-25T02:09:23;6.60;99.90
7000;DHT22;3540;53.242;10.408;2023-04-25T02:12:10;6.60;99.90
7000;DHT22;3540;53.242;10.408;2023-04-25T02:14:36;6.60;99.90
7000;DHT22;3540;53.242;10.408;2023-04-25T02:17:02;6.60;99.90
7000;DHT22;3540;53.242;10.408;2023-04-25T02:19:27;6.60;99.90
7000;DHT22;3540;53.242;10.408;2023-04-25T02:21:53;6.60;99.90
7000;DHT22;3540;53.242;10.408;2023-04-25T02:24:19;6.60;99.90
7000;DHT22;3540;53.242;10.408;2023-04-25T02:26:45;6.60;99.90
7000;DHT22;3540;53.242;10.408;2023-04-25T02:29:12;6.60;99.90
7000;DHT22;3540;53.242;10.408;2023-04-25T02:31:38;6.60;99.90
7000;DHT22;3540;53.242;10.408;2023-04-25T02:34:03;6.60;99.90
7000;DHT22;3540;53.242;10.408;2023-04-25T02:36:30;6.60;99.90
7000;DHT22;3540;53.242;10.408;2023-04-25T02:38:57;6.50;99.90
7000;DHT22;3540;53.242;10.408;2023-04-25T02:41:23;6.60;99.90
7000;DHT22;3540;53.242;10.408;2023-04-25T02:43:48;6.60;99.90
7000;DHT22;3540;53.242;10.408;2023-04-25T02:46:14;6.50;99.90
7000;DHT22;3540;53.242;10.408;2023-04-25T02:48:40;6.50;91.40
7000;DHT22;3540;53.242;10.408;2023-04-25T02:51:05;6.50;55.10
7000;DHT22;3540;53.242;10.408;2023-04-25T02:53:31;6.50;37.20
7000;DHT22;3540;53.242;10.408;2023-04-25T02:55:57;6.50;18.30
7000;DHT22;3540;53.242;10.408;2023-04-25T02:58:24;6.50;5.10
7000;DHT22;3540;53.242;10.408;2023-04-25T03:00:50;6.50;1.00
7000;DHT22;3540;53.242;10.408;2023-04-25T03:03:16;6.40;1.00
7000;DHT22;3540;53.242;10.408;2023-04-25T03:05:43;6.40;1.00
7000;DHT22;3540;53.242;10.408;2023-04-25T03:08:09;6.30;1.00
7000;DHT22;3540;53.242;10.408;2023-04-25T03:10:35;6.20;1.00
7000;DHT22;3540;53.242;10.408;2023-04-25T03:13:00;6.20;1.00
7000;DHT22;3540;53.242;10.408;2023-04-25T03:15:26;6.20;1.00
7000;DHT22;3540;53.242;10.408;2023-04-25T03:17:51;6.20;1.00
7000;DHT22;3540;53.242;10.408;2023-04-25T03:20:17;6.10;1.00
7000;DHT22;3540;53.242;10.408;2023-04-25T03:22:43;6.20;1.00
7000;DHT22;3540;53.242;10.408;2023-04-25T03:25:09;6.10;1.00
7000;DHT22;3540;53.242;10.408;2023-04-25T03:27:35;6.10;1.00
7000;DHT22;3540;53.242;10.408;2023-04-25T03:30:01;6.20;1.00
7000;DHT22;3540;53.242;10.408;2023-04-25T03:32:27;6.20;1.00
7000;DHT22;3540;53.242;10.408;2023-04-25T03:34:52;6.20;1.00
7000;DHT22;3540;53.242;10.408;2023-04-25T03:37:18;6.20;1.00
7000;DHT22;3540;53.242;10.408;2023-04-25T03:39:44;6.20;1.00
7000;DHT22;3540;53.242;10.408;2023-04-25T03:42:09;6.20;1.00
7000;DHT22;3540;53.242;10.408;2023-04-25T03:44:35;6.20;1.00
7000;DHT22;3540;53.242;10.408;2023-04-25T03:47:01;6.20;1.00
7000;DHT22;3540;53.242;10.408;2023-04-25T03:49:26;6.20;1.00
7000;DHT22;3540;53.242;10.408;2023-04-25T03:51:52;6.20;1.00
7000;DHT22;3540;53.242;10.408;2023-04-25T03:54:17;6.20;1.00
7000;DHT22;3540;53.242;10.408;2023-04-25T03:56:43;6.20;1.00
7000;DHT22;3540;53.242;10.408;2023-04-25T03:59:09;6.10;1.00
7000;DHT22;3540;53.242;10.408;2023-04-25T04:01:34;6.10;1.00
7000;DHT22;3540;53.242;10.408;2023-04-25T04:04:00;6.00;1.00
7000;DHT22;3540;53.242;10.408;2023-04-25T04:06:26;6.00;1.00
7000;DHT22;3540;53.242;10.408;2023-04-25T04:08:52;5.90;1.00
7000;DHT22;3540;53.242;10.408;2023-04-25T04:11:17;5.90;1.00
7000;DHT22;3540;53.242;10.408;2023-04-25T04:13:43;5.90;1.00
7000;DHT22;3540;53.242;10.408;2023-04-25T04:16:09;5.80;1.00
7000;DHT22;3540;53.242;10.408;2023-04-25T04:18:34;5.80;1.00
7000;DHT22;3540;53.242;10.408;2023-04-25T04:21:01;5.80;1.00
7000;DHT22;3540;53.242;10.408;2023-04-25T04:23:26;5.70;1.00
7000;DHT22;3540;53.242;10.408;2023-04-25T04:25:55;5.70;1.00
7000;DHT22;3540;53.242;10.408;2023-04-25T04:28:21;5.70;1.00
7000;DHT22;3540;53.242;10.408;2023-04-25T04:30:47;5.70;1.00
7000;DHT22;3540;53.242;10.408;2023-04-25T04:33:13;5.70;1.00
7000;DHT22;3540;53.242;10.408;2023-04-25T04:35:40;5.60;1.00
7000;DHT22;3540;53.242;10.408;2023-04-25T04:38:06;5.60;1.00
7000;DHT22;3540;53.242;10.408;2023-04-25T04:40:32;5.60;1.00
7000;DHT22;3540;53.242;10.408;2023-04-25T04:42:58;5.60;1.00
7000;DHT22;3540;53.242;10.408;2023-04-25T04:45:23;5.60;1.00
7000;DHT22;3540;53.242;10.408;2023-04-25T04:47:49;5.70;1.00
7000;DHT22;3540;53.242;10.408;2023-04-25T04:50:15;5.60;1.00
7000;DHT22;3540;53.242;10.408;2023-04-25T04:52:42;5.70;1.00
7000;DHT22;3540;53.242;10.408;2023-04-25T04:55:08;5.70;1.00
7000;DHT22;3540;53.242;10.408;2023-04-25T04:57:34;5.70;1.00
7000;DHT22;3540;53.242;10.408;2023-04-25T05:00:00;5.70;1.00
7000;DHT22;3540;53.242;10.408;2023-04-25T05:02:26;5.70;1.00
7000;DHT22;3540;53.242;10.408;2023-04-25T05:04:52;5.70;1.00
7000;DHT22;3540;53.242;10.408;2023-04-25T05:07:19;5.80;1.00
7000;DHT22;3540;53.242;10.408;2023-04-25T05:09:44;5.80;1.00
7000;DHT22;3540;53.242;10.408;2023-04-25T05:12:10;5.90;1.00
7000;DHT22;3540;53.242;10.408;2023-04-25T05:14:36;5.80;1.00
7000;DHT22;3540;53.242;10.408;2023-04-25T05:17:01;6.00;1.00
7000;DHT22;3540;53.242;10.408;2023-04-25T05:19:30;6.00;1.00
7000;DHT22;3540;53.242;10.408;2023-04-25T05:21:55;6.10;1.00
7000;DHT22;3540;53.242;10.408;2023-04-25T05:24:21;6.20;1.00
7000;DHT22;3540;53.242;10.408;2023-04-25T05:26:47;6.30;1.00
7000;DHT22;3540;53.242;10.408;2023-04-25T05:29:12;6.40;1.00
7000;DHT22;3540;53.242;10.408;2023-04-25T05:31:38;6.50;1.00
7000;DHT22;3540;53.242;10.408;2023-04-25T05:34:03;6.50;1.00
7000;DHT22;3540;53.242;10.408;2023-04-25T05:36:29;6.40;1.00
7000;DHT22;3540;53.242;10.408;2023-04-25T05:38:56;6.40;1.00
7000;DHT22;3540;53.242;10.408;2023-04-25T05:41:21;6.50;1.00
7000;DHT22;3540;53.242;10.408;2023-04-25T05:43:47;6.60;99.90
7000;DHT22;3540;53.242;10.408;2023-04-25T05:46:14;6.70;99.90
7000;DHT22;3540;53.242;10.408;2023-04-25T05:48:42;6.90;99.90
7000;DHT22;3540;53.242;10.408;2023-04-25T05:51:08;7.00;99.90
7000;DHT22;3540;53.242;10.408;2023-04-25T05:53:34;7.00;99.90
7000;DHT22;3540;53.242;10.408;2023-04-25T05:56:00;7.10;99.90
7000;DHT22;3540;53.242;10.408;2023-04-25T05:58:25;6.90;99.90
7000;DHT22;3540;53.242;10.408;2023-04-25T06:00:51;6.90;99.90
7000;DHT22;3540;53.242;10.408;2023-04-25T06:03:17;7.00;99.90
7000;DHT22;3540;53.242;10.408;2023-04-25T06:05:42;7.00;99.90
7000;DHT22;3540;53.242;10.408;2023-04-25T06:08:09;7.10;99.90
7000;DHT22;3540;53.242;10.408;2023-04-25T06:10:36;7.10;99.90
7000;DHT22;3540;53.242;10.408;2023-04-25T06:13:02;7.00;99.90
7000;DHT22;3540;53.242;10.408;2023-04-25T06:15:27;6.90;99.90
7000;DHT22;3540;53.242;10.408;2023-04-25T06:17:53;6.90;99.90
7000;DHT22;3540;53.242;10.408;2023-04-25T06:20:19;6.70;99.90
7000;DHT22;3540;53.242;10.408;2023-04-25T06:22:48;6.70;99.90
7000;DHT22;3540;53.242;10.408;2023-04-25T06:25:14;6.60;99.90
7000;DHT22;3540;53.242;10.408;2023-04-25T06:27:40;6.70;99.90
7000;DHT22;3540;53.242;10.408;2023-04-25T06:30:06;6.70;99.90
7000;DHT22;3540;53.242;10.408;2023-04-25T06:32:32;6.80;99.90
7000;DHT22;3540;53.242;10.408;2023-04-25T06:34:59;6.80;99.90
7000;DHT22;3540;53.242;10.408;2023-04-25T06:37:25;6.90;99.90
7000;DHT22;3540;53.242;10.408;2023-04-25T06:39:51;6.90;99.90
7000;DHT22;3540;53.242;10.408;2023-04-25T06:42:16;6.90;99.90
7000;DHT22;3540;53.242;10.408;2023-04-25T06:44:42;6.80;99.90
7000;DHT22;3540;53.242;10.408;2023-04-25T06:47:08;6.90;99.90
7000;DHT22;3540;53.242;10.408;2023-04-25T06:49:34;7.00;99.90
7000;DHT22;3540;53.242;10.408;2023-04-25T06:51:59;7.10;99.90
7000;DHT22;3540;53.242;10.408;2023-04-25T06:54:25;7.10;99.90
7000;DHT22;3540;53.242;10.408;2023-04-25T06:56:53;7.10;99.90
7000;DHT22;3540;53.242;10.408;2023-04-25T06:59:19;7.20;99.90
7000;DHT22;3540;53.242;10.408;2023-04-25T07:01:44;7.40;99.90
7000;DHT22;3540;53.242;10.408;2023-04-25T07:04:10;7.50;99.90
7000;DHT22;3540;53.242;10.408;2023-04-25T07:06:36;7.50;99.90
7000;DHT22;3540;53.242;10.408;2023-04-25T07:09:08;7.30;99.90
7000;DHT22;3540;53.242;10.408;2023-04-25T07:11:34;7.30;99.90
7000;DHT22;3540;53.242;10.408;2023-04-25T07:13:59;7.30;99.90
7000;DHT22;3540;53.242;10.408;2023-04-25T07:16:25;7.30;99.90
7000;DHT22;3540;53.242;10.408;2023-04-25T07:18:50;7.30;99.90
7000;DHT22;3540;53.242;10.408;2023-04-25T07:21:16;7.30;99.90
7000;DHT22;3540;53.242;10.408;2023-04-25T07:23:42;7.20;99.90
7000;DHT22;3540;53.242;10.408;2023-04-25T07:26:07;7.20;99.90
7000;DHT22;3540;53.242;10.408;2023-04-25T07:28:33;7.20;99.90
7000;DHT22;3540;53.242;10.408;2023-04-25T07:30:59;7.30;99.90
7000;DHT22;3540;53.242;10.408;2023-04-25T07:33:24;7.30;99.90
7000;DHT22;3540;53.242;10.408;2023-04-25T07:35:50;7.40;99.90
7000;DHT22;3540;53.242;10.408;2023-04-25T07:38:16;7.40;99.90
7000;DHT22;3540;53.242;10.408;2023-04-25T07:40:41;7.50;99.90
7000;DHT22;3540;53.242;10.408;2023-04-25T07:43:07;7.50;99.90
7000;DHT22;3540;53.242;10.408;2023-04-25T07:45:33;7.50;99.90
7000;DHT22;3540;53.242;10.408;2023-04-25T07:47:58;7.60;99.90
7000;DHT22;3540;53.242;10.408;2023-04-25T07:50:24;7.80;99.90
7000;DHT22;3540;53.242;10.408;2023-04-25T07:52:50;7.80;99.90
7000;DHT22;3540;53.242;10.408;2023-04-25T07:55:15;7.70;99.90
7000;DHT22;3540;53.242;10.408;2023-04-25T07:57:41;7.70;99.90
7000;DHT22;3540;53.242;10.408;2023-04-25T08:00:07;7.80;99.90
7000;DHT22;3540;53.242;10.408;2023-04-25T08:02:36;7.80;99.90
7000;DHT22;3540;53.242;10.408;2023-04-25T08:05:02;8.00;99.90
7000;DHT22;3540;53.242;10.408;2023-04-25T08:07:28;7.90;99.90
7000;DHT22;3540;53.242;10.408;2023-04-25T08:09:54;7.80;99.90
7000;DHT22;3540;53.242;10.408;2023-04-25T08:12:20;7.80;99.90
7000;DHT22;3540;53.242;10.408;2023-04-25T08:14:46;8.00;99.90
7000;DHT22;3540;53.242;10.408;2023-04-25T08:17:11;8.10;99.90
7000;DHT22;3540;53.242;10.408;2023-04-25T08:19:37;8.20;99.90
7000;DHT22;3540;53.242;10.408;2023-04-25T08:22:03;8.30;99.90
7000;DHT22;3540;53.242;10.408;2023-04-25T08:24:28;8.30;99.90
7000;DHT22;3540;53.242;10.408;2023-04-25T08:26:54;8.20;99.90
7000;DHT22;3540;53.242;10.408;2023-04-25T08:29:20;8.30;99.90
7000;DHT22;3540;53.242;10.408;2023-04-25T08:31:45;8.30;99.90
7000;DHT22;3540;53.242;10.408;2023-04-25T08:34:11;8.40;99.90
7000;DHT22;3540;53.242;10.408;2023-04-25T08:36:37;8.60;99.90
7000;DHT22;3540;53.242;10.408;2023-04-25T08:39:02;8.50;99.90
7000;DHT22;3540;53.242;10.408;2023-04-25T08:41:28;8.60;99.90
7000;DHT22;3540;53.242;10.408;2023-04-25T08:43:56;8.70;99.90
7000;DHT22;3540;53.242;10.408;2023-04-25T08:46:23;8.90;99.90
7000;DHT22;3540;53.242;10.408;2023-04-25T08:48:49;8.70;99.90
7000;DHT22;3540;53.242;10.408;2023-04-25T08:51:22;8.60;99.90
7000;DHT22;3540;53.242;10.408;2023-04-25T08:53:52;8.60;99.90
7000;DHT22;3540;53.242;10.408;2023-04-25T08:56:18;8.70;99.90
7000;DHT22;3540;53.242;10.408;2023-04-25T08:58:48;8.50;99.90
7000;DHT22;3540;53.242;10.408;2023-04-25T09:01:15;8.60;99.90
7000;DHT22;3540;53.242;10.408;2023-04-25T09:03:40;8.70;99.90
7000;DHT22;3540;53.242;10.408;2023-04-25T09:06:11;8.80;99.90
7000;DHT22;3540;53.242;10.408;2023-04-25T09:08:37;8.60;99.90
7000;DHT22;3540;53.242;10.408;2023-04-25T09:11:06;8.50;99.90
7000;DHT22;3540;53.242;10.408;2023-04-25T09:13:31;8.60;99.90
7000;DHT22;3540;53.242;10.408;2023-04-25T09:15:57;8.80;99.90
7000;DHT22;3540;53.242;10.408;2023-04-25T09:18:28;9.00;99.90
7000;DHT22;3540;53.242;10.408;2023-04-25T09:20:57;8.80;99.90
7000;DHT22;3540;53.242;10.408;2023-04-25T09:23:24;8.60;99.90
7000;DHT22;3540;53.242;10.408;2023-04-25T09:25:51;8.50;99.90
7000;DHT22;3540;53.242;10.408;2023-04-25T09:28:27;8.60;99.90
7000;DHT22;3540;53.242;10.408;2023-04-25T09:30:56;8.50;99.90
7000;DHT22;3540;53.242;10.408;2023-04-25T09:33:32;8.40;99.90
7000;DHT22;3540;53.242;10.408;2023-04-25T09:36:09;8.50;99.90
7000;DHT22;3540;53.242;10.408;2023-04-25T09:38:41;8.60;99.90
7000;DHT22;3540;53.242;10.408;2023-04-25T09:41:08;8.60;99.90
7000;DHT22;3540;53.242;10.408;2023-04-25T09:43:35;8.60;99.90
7000;DHT22;3540;53.242;10.408;2023-04-25T09:46:10;8.70;99.90
7000;DHT22;3540;53.242;10.408;2023-04-25T09:48:37;8.80;99.90
7000;DHT22;3540;53.242;10.408;2023-04-25T09:53:29;8.90;99.90
7000;DHT22;3540;53.242;10.408;2023-04-25T09:55:56;8.60;99.90
7000;DHT22;3540;53.242;10.408;2023-04-25T09:58:23;8.50;99.90
7000;DHT22;3540;53.242;10.408;2023-04-25T10:00:50;8.20;99.90
7000;DHT22;3540;53.242;10.408;2023-04-25T10:03:17;8.20;99.90
7000;DHT22;3540;53.242;10.408;2023-04-25T10:05:43;7.80;99.90
7000;DHT22;3540;53.242;10.408;2023-04-25T10:08:09;7.40;99.90
7000;DHT22;3540;53.242;10.408;2023-04-25T10:10:35;7.30;99.90
7000;DHT22;3540;53.242;10.408;2023-04-25T10:13:04;7.30;99.90
7000;DHT22;3540;53.242;10.408;2023-04-25T10:15:34;7.10;99.90
7000;DHT22;3540;53.242;10.408;2023-04-25T10:18:01;6.80;99.90
7000;DHT22;3540;53.242;10.408;2023-04-25T10:20:27;6.80;99.90
7000;DHT22;3540;53.242;10.408;2023-04-25T10:23:03;6.90;99.90
7000;DHT22;3540;53.242;10.408;2023-04-25T10:25:31;6.90;99.90
7000;DHT22;3540;53.242;10.408;2023-04-25T10:27:59;7.00;99.90
7000;DHT22;3540;53.242;10.408;2023-04-25T10:30:25;7.50;99.90
7000;DHT22;3540;53.242;10.408;2023-04-25T10:32:55;7.70;99.90
7000;DHT22;3540;53.242;10.408;2023-04-25T10:35:26;7.80;99.90
7000;DHT22;3540;53.242;10.408;2023-04-25T10:40:32;7.50;99.90
7000;DHT22;3540;53.242;10.408;2023-04-25T10:46:27;7.50;99.90
7000;DHT22;3540;53.242;10.408;2023-04-25T10:48:59;7.60;99.90
7000;DHT22;3540;53.242;10.408;2023-04-25T10:51:29;7.70;99.90
7000;DHT22;3540;53.242;10.408;2023-04-25T10:54:01;7.60;99.90
7000;DHT22;3540;53.242;10.408;2023-04-25T10:56:35;7.70;99.90
7000;DHT22;3540;53.242;10.408;2023-04-25T10:59:11;8.00;99.90
7000;DHT22;3540;53.242;10.408;2023-04-25T11:01:45;8.50;99.90
7000;DHT22;3540;53.242;10.408;2023-04-25T11:04:32;8.50;99.90
7000;DHT22;3540;53.242;10.408;2023-04-25T11:07:29;8.60;99.90
7000;DHT22;3540;53.242;10.408;2023-04-25T11:10:03;9.10;99.90
7000;DHT22;3540;53.242;10.408;2023-04-25T11:12:30;9.30;99.90
7000;DHT22;3540;53.242;10.408;2023-04-25T11:15:01;9.00;99.90
7000;DHT22;3540;53.242;10.408;2023-04-25T11:17:28;9.00;99.90
7000;DHT22;3540;53.242;10.408;2023-04-25T11:19:54;9.10;99.90
7000;DHT22;3540;53.242;10.408;2023-04-25T11:22:21;9.10;99.90
7000;DHT22;3540;53.242;10.408;2023-04-25T11:24:47;9.30;99.90
7000;DHT22;3540;53.242;10.408;2023-04-25T11:27:13;9.50;99.90
7000;DHT22;3540;53.242;10.408;2023-04-25T11:29:38;9.60;99.90
7000;DHT22;3540;53.242;10.408;2023-04-25T11:32:04;9.30;99.90
7000;DHT22;3540;53.242;10.408;2023-04-25T11:34:31;9.20;99.90
7000;DHT22;3540;53.242;10.408;2023-04-25T11:36:59;9.10;99.90
7000;DHT22;3540;53.242;10.408;2023-04-25T11:39:25;9.00;99.90
7000;DHT22;3540;53.242;10.408;2023-04-25T11:41:51;8.60;99.90
7000;DHT22;3540;53.242;10.408;2023-04-25T11:44:18;8.10;99.90
7000;DHT22;3540;53.242;10.408;2023-04-25T11:46:44;7.40;99.90
7000;DHT22;3540;53.242;10.408;2023-04-25T11:49:10;7.60;99.90
7000;DHT22;3540;53.242;10.408;2023-04-25T11:51:40;7.70;99.90
7000;DHT22;3540;53.242;10.408;2023-04-25T11:54:06;7.60;99.90
7000;DHT22;3540;53.242;10.408;2023-04-25T11:56:32;7.70;99.90
7000;DHT22;3540;53.242;10.408;2023-04-25T11:59:02;7.70;99.90
7000;DHT22;3540;53.242;10.408;2023-04-25T12:01:30;7.80;99.90
7000;DHT22;3540;53.242;10.408;2023-04-25T12:03:56;7.90;99.90
7000;DHT22;3540;53.242;10.408;2023-04-25T12:06:28;8.00;99.90
7000;DHT22;3540;53.242;10.408;2023-04-25T12:09:06;8.10;99.90
7000;DHT22;3540;53.242;10.408;2023-04-25T12:11:32;8.10;99.90
7000;DHT22;3540;53.242;10.408;2023-04-25T12:14:04;8.20;99.90
7000;DHT22;3540;53.242;10.408;2023-04-25T12:16:43;8.20;99.90
7000;DHT22;3540;53.242;10.408;2023-04-25T12:19:09;8.30;99.90
7000;DHT22;3540;53.242;10.408;2023-04-25T12:21:35;8.30;99.90
7000;DHT22;3540;53.242;10.408;2023-04-25T12:24:24;8.40;99.90
7000;DHT22;3540;53.242;10.408;2023-04-25T12:27:03;8.60;99.90
7000;DHT22;3540;53.242;10.408;2023-04-25T12:29:31;9.10;99.90
7000;DHT22;3540;53.242;10.408;2023-04-25T12:31:57;9.30;99.90
7000;DHT22;3540;53.242;10.408;2023-04-25T12:34:24;9.70;99.90
7000;DHT22;3540;53.242;10.408;2023-04-25T12:36:50;9.90;99.90
7000;DHT22;3540;53.242;10.408;2023-04-25T12:39:24;10.00;99.90
7000;DHT22;3540;53.242;10.408;2023-04-25T12:41:52;10.50;99.90
7000;DHT22;3540;53.242;10.408;2023-04-25T12:44:19;10.70;99.90
7000;DHT22;3540;53.242;10.408;2023-04-25T12:46:45;10.30;99.90
7000;DHT22;3540;53.242;10.408;2023-04-25T12:49:11;10.30;99.90
7000;DHT22;3540;53.242;10.408;2023-04-25T12:51:37;9.90;99.90
7000;DHT22;3540;53.242;10.408;2023-04-25T12:54:04;9.70;99.90
7000;DHT22;3540;53.242;10.408;2023-04-25T12:56:30;9.50;99.90
7000;DHT22;3540;53.242;10.408;2023-04-25T12:58:57;9.30;99.90
7000;DHT22;3540;53.242;10.408;2023-04-25T13:01:23;9.00;99.90
7000;DHT22;3540;53.242;10.408;2023-04-25T13:03:49;8.80;99.90
7000;DHT22;3540;53.242;10.408;2023-04-25T13:06:15;8.70;99.90
7000;DHT22;3540;53.242;10.408;2023-04-25T13:08:41;8.60;99.90
7000;DHT22;3540;53.242;10.408;2023-04-25T13:11:08;9.00;99.90
7000;DHT22;3540;53.242;10.408;2023-04-25T13:13:33;9.30;99.90
7000;DHT22;3540;53.242;10.408;2023-04-25T13:16:04;9.40;99.90
7000;DHT22;3540;53.242;10.408;2023-04-25T13:18:31;9.60;99.90
7000;DHT22;3540;53.242;10.408;2023-04-25T13:20:57;9.60;99.90
7000;DHT22;3540;53.242;10.408;2023-04-25T13:23:24;9.60;99.90
7000;DHT22;3540;53.242;10.408;2023-04-25T13:25:50;9.50;99.90
7000;DHT22;3540;53.242;10.408;2023-04-25T13:28:16;9.20;99.90
7000;DHT22;3540;53.242;10.408;2023-04-25T13:30:43;9.00;99.90
7000;DHT22;3540;53.242;10.408;2023-04-25T13:33:08;9.00;99.90
7000;DHT22;3540;53.242;10.408;2023-04-25T13:35:37;9.00;99.90
7000;DHT22;3540;53.242;10.408;2023-04-25T13:38:03;8.90;99.90
7000;DHT22;3540;53.242;10.408;2023-04-25T13:40:29;8.90;99.90
7000;DHT22;3540;53.242;10.408;2023-04-25T13:42:55;9.00;99.90
7000;DHT22;3540;53.242;10.408;2023-04-25T13:45:21;9.40;99.90
7000;DHT22;3540;53.242;10.408;2023-04-25T13:47:47;9.50;99.90
7000;DHT22;3540;53.242;10.408;2023-04-25T13:50:13;9.50;99.90
7000;DHT22;3540;53.242;10.408;2023-04-25T13:52:39;9.70;99.90
7000;DHT22;3540;53.242;10.408;2023-04-25T13:55:06;9.80;99.90
7000;DHT22;3540;53.242;10.408;2023-04-25T13:57:33;9.70;99.90
7000;DHT22;3540;53.242;10.408;2023-04-25T13:59:59;9.60;99.90
7000;DHT22;3540;53.242;10.408;2023-04-25T14:02:25;9.70;99.90
7000;DHT22;3540;53.242;10.408;2023-04-25T14:04:51;9.70;99.90
7000;DHT22;3540;53.242;10.408;2023-04-25T14:07:16;9.90;99.90
7000;DHT22;3540;53.242;10.408;2023-04-25T14:09:43;10.10;99.90
7000;DHT22;3540;53.242;10.408;2023-04-25T14:12:09;9.60;99.90
7000;DHT22;3540;53.242;10.408;2023-04-25T14:14:35;9.50;99.90
7000;DHT22;3540;53.242;10.408;2023-04-25T14:17:01;9.40;99.90
7000;DHT22;3540;53.242;10.408;2023-04-25T14:19:27;9.30;99.90
7000;DHT22;3540;53.242;10.408;2023-04-25T14:21:54;9.40;99.90
7000;DHT22;3540;53.242;10.408;2023-04-25T14:24:19;9.50;99.90
7000;DHT22;3540;53.242;10.408;2023-04-25T14:26:45;9.40;99.90
7000;DHT22;3540;53.242;10.408;2023-04-25T14:29:11;9.10;99.90
7000;DHT22;3540;53.242;10.408;2023-04-25T14:31:37;9.30;99.90
7000;DHT22;3540;53.242;10.408;2023-04-25T14:34:04;8.50;99.90
7000;DHT22;3540;53.242;10.408;2023-04-25T14:36:31;8.20;99.90
7000;DHT22;3540;53.242;10.408;2023-04-25T14:38:57;8.40;99.90
7000;DHT22;3540;53.242;10.408;2023-04-25T14:41:24;8.80;99.90
7000;DHT22;3540;53.242;10.408;2023-04-25T14:43:50;9.10;99.90
7000;DHT22;3540;53.242;10.408;2023-04-25T14:46:16;9.30;99.90
7000;DHT22;3540;53.242;10.408;2023-04-25T14:48:42;9.60;99.90
7000;DHT22;3540;53.242;10.408;2023-04-25T14:51:07;9.60;99.90
7000;DHT22;3540;53.242;10.408;2023-04-25T14:53:33;9.70;99.90
7000;DHT22;3540;53.242;10.408;2023-04-25T14:55:59;10.00;99.90
7000;DHT22;3540;53.242;10.408;2023-04-25T14:58:24;9.80;99.90
7000;DHT22;3540;53.242;10.408;2023-04-25T15:00:52;10.00;99.90
7000;DHT22;3540;53.242;10.408;2023-04-25T15:03:18;9.50;99.90
7000;DHT22;3540;53.242;10.408;2023-04-25T15:05:44;9.70;99.90
7000;DHT22;3540;53.242;10.408;2023-04-25T15:08:10;9.50;99.90
7000;DHT22;3540;53.242;10.408;2023-04-25T15:10:36;10.00;99.90
7000;DHT22;3540;53.242;10.408;2023-04-25T15:13:02;9.70;99.90
7000;DHT22;3540;53.242;10.408;2023-04-25T15:15:28;9.40;99.90
7000;DHT22;3540;53.242;10.408;2023-04-25T15:17:54;9.30;99.90
7000;DHT22;3540;53.242;10.408;2023-04-25T15:20:21;8.90;99.90
7000;DHT22;3540;53.242;10.408;2023-04-25T15:22:47;9.10;99.90
7000;DHT22;3540;53.242;10.408;2023-04-25T15:25:15;9.60;99.90
7000;DHT22;3540;53.242;10.408;2023-04-25T15:27:44;9.40;99.90
7000;DHT22;3540;53.242;10.408;2023-04-25T15:30:13;9.30;99.90
7000;DHT22;3540;53.242;10.408;2023-04-25T15:32:45;9.20;99.90
7000;DHT22;3540;53.242;10.408;2023-04-25T15:35:12;9.30;99.90
7000;DHT22;3540;53.242;10.408;2023-04-25T15:37:38;8.80;99.90
7000;DHT22;3540;53.242;10.408;2023-04-25T15:42:41;8.70;99.90
7000;DHT22;3540;53.242;10.408;2023-04-25T15:45:09;8.70;99.90
7000;DHT22;3540;53.242;10.408;2023-04-25T15:47:36;8.90;99.90
7000;DHT22;3540;53.242;10.408;2023-04-25T15:50:03;9.20;99.90
7000;DHT22;3540;53.242;10.408;2023-04-25T15:52:34;9.10;99.90
7000;DHT22;3540;53.242;10.408;2023-04-25T15:55:20;9.10;99.90
7000;DHT22;3540;53.242;10.408;2023-04-25T15:57:48;9.40;99.90
7000;DHT22;3540;53.242;10.408;2023-04-25T16:00:14;9.60;99.90
7000;DHT22;3540;53.242;10.408;2023-04-25T16:02:42;10.00;99.90
7000;DHT22;3540;53.242;10.408;2023-04-25T16:05:09;10.00;99.90
7000;DHT22;3540;53.242;10.408;2023-04-25T16:07:39;10.00;99.90
7000;DHT22;3540;53.242;10.408;2023-04-25T16:10:05;9.80;99.90
7000;DHT22;3540;53.242;10.408;2023-04-25T16:12:31;9.20;99.90
7000;DHT22;3540;53.242;10.408;2023-04-25T16:14:57;9.40;99.90
7000;DHT22;3540;53.242;10.408;2023-04-25T16:17:23;9.50;99.90